sensor_id;sensor_type;location;lat;lon;timestamp;pressure;altitude;pressure_sealevel;temperature;humidity
2675;BME280;1347;42.122;24.746;2022-09-21T00:00:52;99629.56;;;14.28;58.99
2675;BME280;1347;42.122;24.746;2022-09-21T00:03:19;99618.94;;;14.30;59.16
2675;BME280;1347;42.122;24.746;2022-09-21T00:05:46;99616.19;;;14.37;58.71
2675;BME280;1347;42.122;24.746;2022-09-21T00:08:14;99618.19;;;14.33;58.67
2675;BME280;1347;42.122;24.746;2022-09-21T00:10:41;99620.94;;;14.33;58.19
2675;BME280;1347;42.122;24.746;2022-09-21T00:13:10;99619.34;;;14.28;58.30
2675;BME280;1347;42.122;24.746;2022-09-21T00:15:38;99624.84;;;14.25;57.92
2675;BME280;1347;42.122;24.746;2022-09-21T00:18:05;99622.88;;;14.25;57.83
2675;BME280;1347;42.122;24.746;2022-09-21T00:20:32;99617.38;;;14.32;58.01
2675;BME280;1347;42.122;24.746;2022-09-21T00:22:59;99626.84;;;14.35;57.89
2675;BME280;1347;42.122;24.746;2022-09-21T00:25:28;99622.94;;;14.40;57.85
2675;BME280;1347;42.122;24.746;2022-09-21T00:27:54;99624.53;;;14.44;57.50
2675;BME280;1347;42.122;24.746;2022-09-21T00:30:21;99625.69;;;14.47;57.20
2675;BME280;1347;42.122;24.746;2022-09-21T00:32:48;99629.63;;;14.42;57.45
2675;BME280;1347;42.122;24.746;2022-09-21T00:35:15;99636.28;;;14.30;57.23
2675;BME280;1347;42.122;24.746;2022-09-21T00:37:42;99633.56;;;14.41;57.68
2675;BME280;1347;42.122;24.746;2022-09-21T00:40:09;99641.06;;;14.41;57.30
2675;BME280;1347;42.122;24.746;2022-09-21T00:42:38;99622.50;;;14.30;57.18
2675;BME280;1347;42.122;24.746;2022-09-21T00:45:06;99619.75;;;14.37;57.11
2675;BME280;1347;42.122;24.746;2022-09-21T00:47:47;99623.34;;;14.42;56.36
2675;BME280;1347;42.122;24.746;2022-09-21T00:50:17;99616.59;;;14.32;56.36
2675;BME280;1347;42.122;24.746;2022-09-21T00:52:47;99622.16;;;14.43;55.98
2675;BME280;1347;42.122;24.746;2022-09-21T00:55:17;99619.00;;;14.48;55.63
2675;BME280;1347;42.122;24.746;2022-09-21T00:57:50;99626.50;;;14.54;55.98
2675;BME280;1347;42.122;24.746;2022-09-21T01:00:19;99631.63;;;14.52;55.66
2675;BME280;1347;42.122;24.746;2022-09-21T01:02:46;99626.09;;;14.52;55.73
2675;BME280;1347;42.122;24.746;2022-09-21T01:05:13;99624.91;;;14.53;55.82
2675;BME280;1347;42.122;24.746;2022-09-21T01:07:44;99619.38;;;14.50;55.89
2675;BME280;1347;42.122;24.746;2022-09-21T01:10:14;99620.59;;;14.52;55.88
2675;BME280;1347;42.122;24.746;2022-09-21T01:12:54;99617.44;;;14.50;55.95
2675;BME280;1347;42.122;24.746;2022-09-21T01:15:30;99608.34;;;14.57;55.54
2675;BME280;1347;42.122;24.746;2022-09-21T01:18:07;99616.22;;;14.41;56.30
2675;BME280;1347;42.122;24.746;2022-09-21T01:21:04;99606.41;;;14.54;56.26
2675;BME280;1347;42.122;24.746;2022-09-21T01:23:48;99607.19;;;14.44;56.31
2675;BME280;1347;42.122;24.746;2022-09-21T01:26:26;99609.56;;;14.52;55.87
2675;BME280;1347;42.122;24.746;2022-09-21T01:29:12;99598.13;;;14.54;56.36
2675;BME280;1347;42.122;24.746;2022-09-21T01:31:48;99591.81;;;14.57;55.55
2675;BME280;1347;42.122;24.746;2022-09-21T01:34:21;99601.25;;;14.49;55.86
2675;BME280;1347;42.122;24.746;2022-09-21T01:36:52;99597.31;;;14.50;56.44
2675;BME280;1347;42.122;24.746;2022-09-21T01:39:21;99591.03;;;14.42;56.94
2675;BME280;1347;42.122;24.746;2022-09-21T01:41:51;99591.03;;;14.49;56.32
2675;BME280;1347;42.122;24.746;2022-09-21T01:44:22;99591.41;;;14.41;56.92
2675;BME280;1347;42.122;24.746;2022-09-21T01:46:51;99587.03;;;14.36;56.90
2675;BME280;1347;42.122;24.746;2022-09-21T01:49:21;99589.03;;;14.39;57.27
2675;BME280;1347;42.122;24.746;2022-09-21T01:51:54;99590.19;;;14.38;56.97
2675;BME280;1347;42.122;24.746;2022-09-21T01:54:27;99580.75;;;14.32;57.74
2675;BME280;1347;42.122;24.746;2022-09-21T01:56:58;99586.28;;;14.39;57.45
2675;BME280;1347;42.122;24.746;2022-09-21T01:59:35;99585.47;;;14.31;57.42
2675;BME280;1347;42.122;24.746;2022-09-21T02:02:08;99583.88;;;14.30;57.45
2675;BME280;1347;42.122;24.746;2022-09-21T02:04:37;99587.44;;;14.38;57.21
2675;BME280;1347;42.122;24.746;2022-09-21T02:07:05;99587.47;;;14.42;57.35
2675;BME280;1347;42.122;24.746;2022-09-21T02:09:33;99583.16;;;14.44;57.08
2675;BME280;1347;42.122;24.746;2022-09-21T02:12:01;99580.38;;;14.41;57.21
2675;BME280;1347;42.122;24.746;2022-09-21T02:14:30;99585.13;;;14.44;57.48
2675;BME280;1347;42.122;24.746;2022-09-21T02:17:04;99589.81;;;14.32;57.46
2675;BME280;1347;42.122;24.746;2022-09-21T02:19:44;99583.50;;;14.32;57.67
2675;BME280;1347;42.122;24.746;2022-09-21T02:22:14;99593.38;;;14.40;57.23
2675;BME280;1347;42.122;24.746;2022-09-21T02:24:44;99591.81;;;14.39;57.88
2675;BME280;1347;42.122;24.746;2022-09-21T02:27:20;99594.19;;;14.51;57.20
2675;BME280;1347;42.122;24.746;2022-09-21T02:29:57;99595.75;;;14.56;57.20
2675;BME280;1347;42.122;24.746;2022-09-21T02:32:32;99594.56;;;14.43;58.05
2675;BME280;1347;42.122;24.746;2022-09-21T02:35:01;99584.31;;;14.50;57.80
2675;BME280;1347;42.122;24.746;2022-09-21T02:37:34;99597.72;;;14.52;57.41
2675;BME280;1347;42.122;24.746;2022-09-21T02:40:07;99596.53;;;14.49;57.60
2675;BME280;1347;42.122;24.746;2022-09-21T02:42:38;99590.19;;;14.38;58.13
2675;BME280;1347;42.122;24.746;2022-09-21T02:45:12;99586.69;;;14.45;57.63
2675;BME280;1347;42.122;24.746;2022-09-21T02:47:45;99598.88;;;14.47;57.67
2675;BME280;1347;42.122;24.746;2022-09-21T02:50:17;99599.69;;;14.41;57.69
2675;BME280;1347;42.122;24.746;2022-09-21T02:52:45;99591.00;;;14.24;58.25
2675;BME280;1347;42.122;24.746;2022-09-21T02:55:14;99597.72;;;14.41;57.75
2675;BME280;1347;42.122;24.746;2022-09-21T02:57:44;99602.84;;;14.39;57.25
2675;BME280;1347;42.122;24.746;2022-09-21T03:00:15;99600.41;;;14.16;58.12
2675;BME280;1347;42.122;24.746;2022-09-21T03:02:43;99601.22;;;14.24;58.24
2675;BME280;1347;42.122;24.746;2022-09-21T03:05:11;99598.44;;;14.27;57.80
2675;BME280;1347;42.122;24.746;2022-09-21T03:07:39;99596.50;;;14.24;58.11
2675;BME280;1347;42.122;24.746;2022-09-21T03:10:07;99602.41;;;14.30;57.60
2675;BME280;1347;42.122;24.746;2022-09-21T03:12:34;99605.53;;;14.28;58.10
2675;BME280;1347;42.122;24.746;2022-09-21T03:15:01;99600.44;;;14.37;58.08
2675;BME280;1347;42.122;24.746;2022-09-21T03:17:30;99601.59;;;14.26;57.40
2675;BME280;1347;42.122;24.746;2022-09-21T03:19:57;99609.06;;;14.25;57.82
2675;BME280;1347;42.122;24.746;2022-09-21T03:22:24;99600.03;;;14.28;58.16
2675;BME280;1347;42.122;24.746;2022-09-21T03:24:50;99607.91;;;14.26;57.82
2675;BME280;1347;42.122;24.746;2022-09-21T03:27:21;99607.53;;;14.24;57.72
2675;BME280;1347;42.122;24.746;2022-09-21T03:29:49;99607.53;;;14.31;57.69
2675;BME280;1347;42.122;24.746;2022-09-21T03:32:15;99609.88;;;14.29;58.18
2675;BME280;1347;42.122;24.746;2022-09-21T03:34:44;99615.38;;;14.19;58.33
2675;BME280;1347;42.122;24.746;2022-09-21T03:37:11;99613.41;;;14.26;58.02
2675;BME280;1347;42.122;24.746;2022-09-21T03:39:38;99619.72;;;14.23;58.41
2675;BME280;1347;42.122;24.746;2022-09-21T03:42:05;99614.19;;;14.20;58.57
2675;BME280;1347;42.122;24.746;2022-09-21T03:44:33;99616.56;;;14.25;58.17
2675;BME280;1347;42.122;24.746;2022-09-21T03:47:01;99613.03;;;14.28;57.91
2675;BME280;1347;42.122;24.746;2022-09-21T03:49:31;99616.56;;;14.14;58.81
2675;BME280;1347;42.122;24.746;2022-09-21T03:52:02;99622.06;;;14.11;58.98
2675;BME280;1347;42.122;24.746;2022-09-21T03:54:29;99624.00;;;14.07;59.45
2675;BME280;1347;42.122;24.746;2022-09-21T03:56:55;99619.31;;;14.25;59.11
2675;BME280;1347;42.122;24.746;2022-09-21T03:59:22;99621.66;;;14.16;59.30
2675;BME280;1347;42.122;24.746;2022-09-21T04:01:50;99623.22;;;13.99;59.76
2675;BME280;1347;42.122;24.746;2022-09-21T04:04:16;99621.66;;;14.02;59.39
2675;BME280;1347;42.122;24.746;2022-09-21T04:06:43;99623.97;;;13.96;59.99
2675;BME280;1347;42.122;24.746;2022-09-21T04:09:12;99617.31;;;14.00;59.37
2675;BME280;1347;42.122;24.746;2022-09-21T04:11:39;99621.63;;;13.94;59.77
2675;BME280;1347;42.122;24.746;2022-09-21T04:14:07;99624.41;;;14.05;59.26
2675;BME280;1347;42.122;24.746;2022-09-21T04:16:35;99625.59;;;14.08;59.48
2675;BME280;1347;42.122;24.746;2022-09-21T04:19:02;99632.28;;;13.99;60.05
2675;BME280;1347;42.122;24.746;2022-09-21T04:21:29;99625.22;;;14.09;59.64
2675;BME280;1347;42.122;24.746;2022-09-21T04:23:56;99633.47;;;14.09;59.37
2675;BME280;1347;42.122;24.746;2022-09-21T04:26:26;99635.44;;;14.05;59.60
2675;BME280;1347;42.122;24.746;2022-09-21T04:28:53;99633.88;;;14.04;60.13
2675;BME280;1347;42.122;24.746;2022-09-21T04:31:21;99628.75;;;14.10;59.97
2675;BME280;1347;42.122;24.746;2022-09-21T04:33:49;99633.13;;;14.14;60.19
2675;BME280;1347;42.122;24.746;2022-09-21T04:36:16;99631.53;;;14.13;59.96
2675;BME280;1347;42.122;24.746;2022-09-21T04:38:44;99635.44;;;14.05;59.74
2675;BME280;1347;42.122;24.746;2022-09-21T04:41:11;99633.50;;;14.16;59.14
2675;BME280;1347;42.122;24.746;2022-09-21T04:43:42;99634.69;;;14.19;59.16
2675;BME280;1347;42.122;24.746;2022-09-21T04:46:12;99631.94;;;14.36;58.94
2675;BME280;1347;42.122;24.746;2022-09-21T04:48:39;99634.31;;;14.38;58.85
2675;BME280;1347;42.122;24.746;2022-09-21T04:51:07;99635.09;;;14.38;58.82
2675;BME280;1347;42.122;24.746;2022-09-21T04:53:34;99631.63;;;14.45;58.87
2675;BME280;1347;42.122;24.746;2022-09-21T04:56:11;99626.50;;;14.61;58.80
2675;BME280;1347;42.122;24.746;2022-09-21T04:58:38;99631.59;;;14.49;58.59
2675;BME280;1347;42.122;24.746;2022-09-21T05:01:07;99635.94;;;14.53;58.95
2675;BME280;1347;42.122;24.746;2022-09-21T05:03:34;99629.66;;;14.63;58.60
2675;BME280;1347;42.122;24.746;2022-09-21T05:06:01;99632.41;;;14.67;58.99
2675;BME280;1347;42.122;24.746;2022-09-21T05:08:28;99633.19;;;14.78;58.13
2675;BME280;1347;42.122;24.746;2022-09-21T05:11:14;99641.47;;;14.75;58.36
2675;BME280;1347;42.122;24.746;2022-09-21T05:13:42;99637.13;;;14.59;58.83
2675;BME280;1347;42.122;24.746;2022-09-21T05:16:11;99636.75;;;14.86;58.54
2675;BME280;1347;42.122;24.746;2022-09-21T05:18:38;99634.75;;;14.86;58.40
2675;BME280;1347;42.122;24.746;2022-09-21T05:21:05;99631.22;;;14.86;57.98
2675;BME280;1347;42.122;24.746;2022-09-21T05:23:31;99628.06;;;14.94;58.13
2675;BME280;1347;42.122;24.746;2022-09-21T05:25:58;99626.47;;;15.04;57.66
2675;BME280;1347;42.122;24.746;2022-09-21T05:28:26;99627.66;;;15.03;57.33
2675;BME280;1347;42.122;24.746;2022-09-21T05:30:57;99626.44;;;15.18;57.04
2675;BME280;1347;42.122;24.746;2022-09-21T05:33:29;99635.13;;;15.20;57.10
2675;BME280;1347;42.122;24.746;2022-09-21T05:36:02;99629.97;;;15.29;57.38
2675;BME280;1347;42.122;24.746;2022-09-21T05:38:31;99628.75;;;15.44;57.13
2675;BME280;1347;42.122;24.746;2022-09-21T05:40:59;99635.38;;;15.72;55.92
2675;BME280;1347;42.122;24.746;2022-09-21T05:43:26;99634.28;;;15.55;56.38
2675;BME280;1347;42.122;24.746;2022-09-21T05:46:00;99638.53;;;15.70;55.35
2675;BME280;1347;42.122;24.746;2022-09-21T05:48:35;99633.28;;;16.01;55.37
2675;BME280;1347;42.122;24.746;2022-09-21T05:51:12;99636.03;;;16.08;54.65
2675;BME280;1347;42.122;24.746;2022-09-21T05:53:49;99641.19;;;15.99;54.81
2675;BME280;1347;42.122;24.746;2022-09-21T05:56:36;99636.03;;;16.01;55.22
2675;BME280;1347;42.122;24.746;2022-09-21T05:59:34;99645.41;;;16.21;54.74
2675;BME280;1347;42.122;24.746;2022-09-21T06:02:12;99639.97;;;16.07;55.11
2675;BME280;1347;42.122;24.746;2022-09-21T06:04:46;99637.38;;;16.44;54.08
2675;BME280;1347;42.122;24.746;2022-09-21T06:07:14;99648.50;;;16.37;54.10
2675;BME280;1347;42.122;24.746;2022-09-21T06:09:40;99652.81;;;16.38;53.77
2675;BME280;1347;42.122;24.746;2022-09-21T06:12:07;99648.56;;;16.27;54.08
2675;BME280;1347;42.122;24.746;2022-09-21T06:14:35;99650.75;;;16.53;53.48
2675;BME280;1347;42.122;24.746;2022-09-21T06:17:03;99655.03;;;16.61;53.61
2675;BME280;1347;42.122;24.746;2022-09-21T06:19:30;99648.56;;;16.82;52.69
2675;BME280;1347;42.122;24.746;2022-09-21T06:21:58;99641.59;;;16.60;53.46
2675;BME280;1347;42.122;24.746;2022-09-21T06:24:25;99655.47;;;16.56;53.26
2675;BME280;1347;42.122;24.746;2022-09-21T06:26:52;99650.44;;;16.96;52.78
2675;BME280;1347;42.122;24.746;2022-09-21T06:29:19;99663.31;;;17.16;51.95
2675;BME280;1347;42.122;24.746;2022-09-21T06:31:48;99654.78;;;17.38;51.60
2675;BME280;1347;42.122;24.746;2022-09-21T06:34:15;99658.63;;;17.85;50.72
2675;BME280;1347;42.122;24.746;2022-09-21T06:36:42;99655.34;;;18.51;49.72
2675;BME280;1347;42.122;24.746;2022-09-21T06:39:11;99654.69;;;18.93;48.06
2675;BME280;1347;42.122;24.746;2022-09-21T06:41:39;99656.56;;;19.66;47.15
2675;BME280;1347;42.122;24.746;2022-09-21T06:44:05;99653.88;;;19.63;46.99
2675;BME280;1347;42.122;24.746;2022-09-21T06:46:32;99661.94;;;19.10;47.31
2675;BME280;1347;42.122;24.746;2022-09-21T06:48:59;99657.84;;;18.72;48.16
2675;BME280;1347;42.122;24.746;2022-09-21T06:51:26;99667.59;;;18.53;47.92
2675;BME280;1347;42.122;24.746;2022-09-21T06:53:54;99670.13;;;18.14;48.66
2675;BME280;1347;42.122;24.746;2022-09-21T06:56:24;99667.94;;;18.32;48.49
2675;BME280;1347;42.122;24.746;2022-09-21T06:58:54;99663.25;;;17.95;48.93
2675;BME280;1347;42.122;24.746;2022-09-21T07:01:21;99668.56;;;18.13;48.95
2675;BME280;1347;42.122;24.746;2022-09-21T07:03:49;99669.06;;;18.34;48.72
2675;BME280;1347;42.122;24.746;2022-09-21T07:06:17;99667.03;;;19.59;46.99
2675;BME280;1347;42.122;24.746;2022-09-21T07:08:44;99670.41;;;20.26;44.39
2675;BME280;1347;42.122;24.746;2022-09-21T07:11:12;99675.09;;;20.48;44.09
2675;BME280;1347;42.122;24.746;2022-09-21T07:13:40;99670.94;;;20.20;44.09
2675;BME280;1347;42.122;24.746;2022-09-21T07:16:08;99671.50;;;20.32;44.17
2675;BME280;1347;42.122;24.746;2022-09-21T07:18:35;99676.31;;;19.92;43.80
2675;BME280;1347;42.122;24.746;2022-09-21T07:21:03;99668.22;;;20.17;43.29
2675;BME280;1347;42.122;24.746;2022-09-21T07:23:30;99671.41;;;20.55;43.19
2675;BME280;1347;42.122;24.746;2022-09-21T07:26:01;99669.81;;;21.35;41.80
2675;BME280;1347;42.122;24.746;2022-09-21T07:28:29;99666.88;;;22.63;39.86
2675;BME280;1347;42.122;24.746;2022-09-21T07:30:57;99669.56;;;23.96;37.84
2675;BME280;1347;42.122;24.746;2022-09-21T07:33:25;99661.22;;;23.27;38.46
2675;BME280;1347;42.122;24.746;2022-09-21T07:35:52;99663.94;;;24.17;37.39
2675;BME280;1347;42.122;24.746;2022-09-21T07:38:21;99667.38;;;24.83;36.84
2675;BME280;1347;42.122;24.746;2022-09-21T07:40:49;99669.03;;;25.12;34.83
2675;BME280;1347;42.122;24.746;2022-09-21T07:43:16;99664.06;;;25.80;34.75
2675;BME280;1347;42.122;24.746;2022-09-21T07:45:42;99664.47;;;26.24;34.94
2675;BME280;1347;42.122;24.746;2022-09-21T07:48:18;99667.69;;;28.37;32.66
2675;BME280;1347;42.122;24.746;2022-09-21T07:50:47;99676.88;;;26.92;32.77
2675;BME280;1347;42.122;24.746;2022-09-21T07:53:15;99681.66;;;28.02;31.52
2675;BME280;1347;42.122;24.746;2022-09-21T07:55:42;99670.19;;;29.80;30.29
2675;BME280;1347;42.122;24.746;2022-09-21T07:58:10;99669.94;;;31.52;28.09
2675;BME280;1347;42.122;24.746;2022-09-21T08:00:54;99674.84;;;33.41;25.76
2675;BME280;1347;42.122;24.746;2022-09-21T08:03:22;99677.03;;;33.07;26.70
2675;BME280;1347;42.122;24.746;2022-09-21T08:05:49;99659.25;;;31.95;27.30
2675;BME280;1347;42.122;24.746;2022-09-21T08:08:16;99656.38;;;30.71;27.63
2675;BME280;1347;42.122;24.746;2022-09-21T08:10:44;99654.28;;;28.32;30.58
2675;BME280;1347;42.122;24.746;2022-09-21T08:13:11;99655.72;;;28.91;29.69
2675;BME280;1347;42.122;24.746;2022-09-21T08:15:38;99646.06;;;29.59;29.49
2675;BME280;1347;42.122;24.746;2022-09-21T08:18:05;99644.28;;;30.70;28.58
2675;BME280;1347;42.122;24.746;2022-09-21T08:20:34;99639.91;;;32.77;26.68
2675;BME280;1347;42.122;24.746;2022-09-21T08:23:01;99642.16;;;33.01;26.92
2675;BME280;1347;42.122;24.746;2022-09-21T08:25:28;99640.00;;;31.45;26.81
2675;BME280;1347;42.122;24.746;2022-09-21T08:27:58;99642.38;;;34.97;24.17
2675;BME280;1347;42.122;24.746;2022-09-21T08:30:25;99645.28;;;32.98;24.74
2675;BME280;1347;42.122;24.746;2022-09-21T08:32:55;99638.53;;;34.95;24.29
2675;BME280;1347;42.122;24.746;2022-09-21T08:35:22;99632.63;;;34.63;24.68
2675;BME280;1347;42.122;24.746;2022-09-21T08:37:52;99630.06;;;34.35;25.57
2675;BME280;1347;42.122;24.746;2022-09-21T08:40:19;99631.31;;;36.97;22.25
2675;BME280;1347;42.122;24.746;2022-09-21T08:42:51;99630.69;;;37.04;22.14
2675;BME280;1347;42.122;24.746;2022-09-21T08:45:21;99611.91;;;34.62;23.96
2675;BME280;1347;42.122;24.746;2022-09-21T08:47:55;99617.31;;;34.66;23.65
2675;BME280;1347;42.122;24.746;2022-09-21T08:50:31;99615.19;;;33.82;24.06
2675;BME280;1347;42.122;24.746;2022-09-21T08:53:05;99611.03;;;32.57;25.08
2675;BME280;1347;42.122;24.746;2022-09-21T08:55:32;99615.03;;;31.44;26.25
2675;BME280;1347;42.122;24.746;2022-09-21T08:57:59;99625.72;;;31.83;25.59
2675;BME280;1347;42.122;24.746;2022-09-21T09:00:29;99606.09;;;31.68;26.02
2675;BME280;1347;42.122;24.746;2022-09-21T09:03:25;99611.28;;;32.47;24.79
2675;BME280;1347;42.122;24.746;2022-09-21T09:05:58;99606.22;;;34.38;23.77
2675;BME280;1347;42.122;24.746;2022-09-21T09:08:42;99603.34;;;35.35;23.19
2675;BME280;1347;42.122;24.746;2022-09-21T09:11:22;99594.31;;;35.69;22.82
2675;BME280;1347;42.122;24.746;2022-09-21T09:14:13;99589.59;;;36.35;22.53
2675;BME280;1347;42.122;24.746;2022-09-21T09:16:54;99584.19;;;35.12;22.60
2675;BME280;1347;42.122;24.746;2022-09-21T09:19:29;99598.00;;;35.64;22.87
2675;BME280;1347;42.122;24.746;2022-09-21T09:22:01;99582.94;;;34.40;23.56
2675;BME280;1347;42.122;24.746;2022-09-21T09:24:36;99561.88;;;34.48;23.11
2675;BME280;1347;42.122;24.746;2022-09-21T09:27:08;99562.94;;;34.15;23.11
2675;BME280;1347;42.122;24.746;2022-09-21T09:29:50;99561.34;;;33.02;23.73
2675;BME280;1347;42.122;24.746;2022-09-21T09:32:24;99568.78;;;33.16;23.61
2675;BME280;1347;42.122;24.746;2022-09-21T09:35:00;99568.34;;;34.19;23.30
2675;BME280;1347;42.122;24.746;2022-09-21T09:37:31;99571.47;;;34.94;22.85
2675;BME280;1347;42.122;24.746;2022-09-21T09:40:01;99564.88;;;34.56;22.59
2675;BME280;1347;42.122;24.746;2022-09-21T09:42:49;99558.06;;;35.64;22.58
2675;BME280;1347;42.122;24.746;2022-09-21T09:45:30;99564.16;;;34.98;22.67
2675;BME280;1347;42.122;24.746;2022-09-21T09:48:09;99569.28;;;34.81;21.91
2675;BME280;1347;42.122;24.746;2022-09-21T09:50:43;99568.44;;;35.48;21.85
2675;BME280;1347;42.122;24.746;2022-09-21T09:53:11;99570.75;;;35.31;22.16
2675;BME280;1347;42.122;24.746;2022-09-21T09:55:42;99563.38;;;36.50;20.93
2675;BME280;1347;42.122;24.746;2022-09-21T09:58:16;99557.06;;;35.24;21.83
2675;BME280;1347;42.122;24.746;2022-09-21T10:00:44;99562.06;;;35.93;22.33
2675;BME280;1347;42.122;24.746;2022-09-21T10:03:16;99565.53;;;37.36;20.83
2675;BME280;1347;42.122;24.746;2022-09-21T10:05:44;99557.88;;;38.27;20.33
2675;BME280;1347;42.122;24.746;2022-09-21T10:08:43;99553.72;;;38.93;19.85
2675;BME280;1347;42.122;24.746;2022-09-21T10:11:14;99547.88;;;36.98;21.26
2675;BME280;1347;42.122;24.746;2022-09-21T10:13:42;99538.63;;;38.07;20.76
2675;BME280;1347;42.122;24.746;2022-09-21T10:16:13;99527.81;;;38.13;20.90
2675;BME280;1347;42.122;24.746;2022-09-21T10:18:44;99539.00;;;37.36;20.85
2675;BME280;1347;42.122;24.746;2022-09-21T10:21:17;99528.38;;;33.76;22.70
2675;BME280;1347;42.122;24.746;2022-09-21T10:23:48;99533.47;;;30.89;25.30
2675;BME280;1347;42.122;24.746;2022-09-21T10:26:18;99523.22;;;31.02;25.57
2675;BME280;1347;42.122;24.746;2022-09-21T10:28:56;99518.47;;;28.74;27.30
2675;BME280;1347;42.122;24.746;2022-09-21T10:31:24;99518.19;;;28.51;28.18
2675;BME280;1347;42.122;24.746;2022-09-21T10:33:54;99506.59;;;27.35;29.04
2675;BME280;1347;42.122;24.746;2022-09-21T10:36:32;99510.78;;;26.77;29.33
2675;BME280;1347;42.122;24.746;2022-09-21T10:39:17;99505.44;;;26.41;30.18
2675;BME280;1347;42.122;24.746;2022-09-21T10:41:49;99498.56;;;25.58;31.02
2675;BME280;1347;42.122;24.746;2022-09-21T10:44:19;99497.63;;;25.70;31.08
2675;BME280;1347;42.122;24.746;2022-09-21T10:46:48;99516.56;;;25.15;31.12
2675;BME280;1347;42.122;24.746;2022-09-21T10:49:21;99493.66;;;24.89;31.89
2675;BME280;1347;42.122;24.746;2022-09-21T10:51:51;99496.91;;;24.42;32.92
2675;BME280;1347;42.122;24.746;2022-09-21T10:54:23;99498.00;;;24.53;32.84
2675;BME280;1347;42.122;24.746;2022-09-21T10:56:56;99505.78;;;24.49;32.49
2675;BME280;1347;42.122;24.746;2022-09-21T10:59:26;99484.84;;;24.23;33.20
2675;BME280;1347;42.122;24.746;2022-09-21T11:01:55;99502.75;;;24.26;32.73
2675;BME280;1347;42.122;24.746;2022-09-21T11:04:29;99491.19;;;23.74;33.07
2675;BME280;1347;42.122;24.746;2022-09-21T11:07:06;99496.63;;;24.09;33.61
2675;BME280;1347;42.122;24.746;2022-09-21T11:09:38;99496.47;;;24.12;33.88
2675;BME280;1347;42.122;24.746;2022-09-21T11:12:25;99491.03;;;23.69;33.26
2675;BME280;1347;42.122;24.746;2022-09-21T11:14:59;99493.56;;;23.85;33.37
2675;BME280;1347;42.122;24.746;2022-09-21T11:17:34;99487.50;;;23.77;32.85
2675;BME280;1347;42.122;24.746;2022-09-21T11:20:13;99496.69;;;23.87;33.36
2675;BME280;1347;42.122;24.746;2022-09-21T11:22:44;99495.00;;;23.90;33.38
2675;BME280;1347;42.122;24.746;2022-09-21T11:25:24;99494.34;;;23.33;34.08
2675;BME280;1347;42.122;24.746;2022-09-21T11:28:03;99489.31;;;23.19;33.93
2675;BME280;1347;42.122;24.746;2022-09-21T11:30:39;99483.38;;;22.95;34.72
2675;BME280;1347;42.122;24.746;2022-09-21T11:33:18;99483.69;;;22.75;34.92
2675;BME280;1347;42.122;24.746;2022-09-21T11:35:57;99480.47;;;22.98;34.85
2675;BME280;1347;42.122;24.746;2022-09-21T11:38:38;99487.69;;;22.74;34.81
2675;BME280;1347;42.122;24.746;2022-09-21T11:41:24;99481.41;;;22.48;35.24
2675;BME280;1347;42.122;24.746;2022-09-21T11:44:14;99478.22;;;22.24;35.56
2675;BME280;1347;42.122;24.746;2022-09-21T11:46:47;99478.22;;;22.24;35.60
2675;BME280;1347;42.122;24.746;2022-09-21T11:49:31;99473.16;;;22.32;35.64
2675;BME280;1347;42.122;24.746;2022-09-21T11:52:15;99475.16;;;22.44;35.46
2675;BME280;1347;42.122;24.746;2022-09-21T11:58:01;99466.94;;;22.28;35.44
2675;BME280;1347;42.122;24.746;2022-09-21T12:00:43;99457.34;;;22.29;35.81
2675;BME280;1347;42.122;24.746;2022-09-21T12:03:37;99474.22;;;22.00;35.47
2675;BME280;1347;42.122;24.746;2022-09-21T12:06:15;99462.34;;;22.68;35.17
2675;BME280;1347;42.122;24.746;2022-09-21T12:08:57;99468.22;;;22.49;35.82
2675;BME280;1347;42.122;24.746;2022-09-21T12:11:35;99467.25;;;22.77;34.43
2675;BME280;1347;42.122;24.746;2022-09-21T12:14:11;99471.63;;;22.78;34.40
2675;BME280;1347;42.122;24.746;2022-09-21T12:16:47;99478.78;;;22.19;34.95
2675;BME280;1347;42.122;24.746;2022-09-21T12:19:24;99467.44;;;22.48;35.52
2675;BME280;1347;42.122;24.746;2022-09-21T12:22:01;99458.31;;;22.35;35.79
2675;BME280;1347;42.122;24.746;2022-09-21T12:24:33;99470.66;;;22.59;35.33
2675;BME280;1347;42.122;24.746;2022-09-21T12:27:07;99457.06;;;22.49;35.50
2675;BME280;1347;42.122;24.746;2022-09-21T12:29:39;99457.91;;;22.11;35.81
2675;BME280;1347;42.122;24.746;2022-09-21T12:32:18;99457.91;;;22.11;35.93
2675;BME280;1347;42.122;24.746;2022-09-21T12:34:52;99459.19;;;22.32;35.65
2675;BME280;1347;42.122;24.746;2022-09-21T12:37:24;99449.09;;;21.87;36.43
2675;BME280;1347;42.122;24.746;2022-09-21T12:39:59;99457.34;;;21.65;36.70
2675;BME280;1347;42.122;24.746;2022-09-21T12:42:32;99457.91;;;21.73;36.94
2675;BME280;1347;42.122;24.746;2022-09-21T12:45:05;99457.13;;;21.73;36.81
2675;BME280;1347;42.122;24.746;2022-09-21T12:47:44;99462.47;;;21.54;37.24
2675;BME280;1347;42.122;24.746;2022-09-21T12:50:17;99453.88;;;21.61;37.33
2675;BME280;1347;42.122;24.746;2022-09-21T12:52:46;99454.38;;;21.98;36.90
2675;BME280;1347;42.122;24.746;2022-09-21T12:55:25;99453.75;;;21.90;37.26
2675;BME280;1347;42.122;24.746;2022-09-21T12:58:03;99454.38;;;21.98;37.36
2675;BME280;1347;42.122;24.746;2022-09-21T13:00:38;99451.75;;;22.16;36.93
2675;BME280;1347;42.122;24.746;2022-09-21T13:03:11;99447.97;;;21.85;36.50
2675;BME280;1347;42.122;24.746;2022-09-21T13:05:49;99454.88;;;21.93;36.74
2675;BME280;1347;42.122;24.746;2022-09-21T13:08:25;99453.88;;;22.12;36.81
2675;BME280;1347;42.122;24.746;2022-09-21T13:10:59;99452.97;;;21.90;36.62
2675;BME280;1347;42.122;24.746;2022-09-21T13:13:31;99449.97;;;21.72;37.02
2675;BME280;1347;42.122;24.746;2022-09-21T13:16:00;99457.13;;;21.85;36.94
2675;BME280;1347;42.122;24.746;2022-09-21T13:18:32;99451.44;;;21.76;36.96
2675;BME280;1347;42.122;24.746;2022-09-21T13:21:00;99448.28;;;21.49;37.34
2675;BME280;1347;42.122;24.746;2022-09-21T13:23:38;99442.72;;;21.61;37.64
2675;BME280;1347;42.122;24.746;2022-09-21T13:26:10;99450.97;;;21.52;37.58
2675;BME280;1347;42.122;24.746;2022-09-21T13:31:29;99444.06;;;21.03;38.25
2675;BME280;1347;42.122;24.746;2022-09-21T13:34:19;99437.94;;;20.95;38.41
2675;BME280;1347;42.122;24.746;2022-09-21T13:37:13;99434.53;;;20.87;38.69
2675;BME280;1347;42.122;24.746;2022-09-21T13:42:45;99427.09;;;21.39;38.53